createdAt,value
2018-12-29T00:00:35.610Z,68.83
2018-12-29T00:03:04.466Z,59.43
2018-12-29T00:05:33.164Z,67.87
2018-12-29T00:08:01.926Z,59.87
2018-12-29T00:10:30.628Z,61.63
2018-12-29T00:12:59.050Z,64.67
2018-12-29T00:15:27.738Z,66.10
2018-12-29T00:17:56.429Z,64.17
2018-12-29T00:20:24.846Z,71.03
2018-12-29T00:22:53.326Z,62.33
2018-12-29T00:25:22.050Z,65.60
2018-12-29T00:27:50.451Z,65.90
2018-12-29T00:30:19.144Z,62.80
2018-12-29T00:32:47.845Z,64.30
2018-12-29T00:35:16.563Z,65.90
2018-12-29T00:37:45.262Z,71.30
2018-12-29T00:40:13.725Z,62.93
2018-12-29T00:42:42.478Z,70.37
2018-12-29T00:45:11.151Z,72.60
2018-12-29T00:47:40.142Z,70.60
2018-12-29T00:50:08.833Z,77.43
2018-12-29T00:52:37.247Z,73.67
2018-12-29T00:55:05.945Z,69.53
2018-12-29T00:57:34.802Z,65.63
2018-12-29T01:00:03.763Z,69.03
2018-12-29T01:02:32.229Z,66.37
2018-12-29T01:05:00.701Z,71.43
2018-12-29T01:07:29.489Z,66.40
2018-12-29T01:09:57.884Z,71.30
2018-12-29T01:12:26.301Z,73.27
2018-12-29T01:14:55.034Z,66.63
2018-12-29T01:17:23.437Z,67.87
2018-12-29T01:19:52.147Z,75.43
2018-12-29T01:22:20.561Z,74.40
2018-12-29T01:24:49.264Z,66.83
2018-12-29T01:27:18.070Z,71.97
2018-12-29T01:29:46.769Z,68.60
2018-12-29T01:32:15.628Z,74.73
2018-12-29T01:34:44.329Z,65.50
2018-12-29T01:37:13.012Z,73.67
2018-12-29T01:39:41.743Z,72.00
2018-12-29T01:42:10.427Z,78.07
2018-12-29T01:44:39.116Z,66.30
2018-12-29T01:47:07.831Z,69.07
2018-12-29T01:49:36.524Z,74.87
2018-12-29T01:52:05.276Z,64.70
2018-12-29T01:54:33.980Z,65.40
2018-12-29T01:57:02.391Z,68.00
2018-12-29T01:59:31.085Z,64.47
2018-12-29T02:01:59.589Z,72.93
2018-12-29T02:04:28.042Z,69.77
2018-12-29T02:07:00.268Z,75.03
2018-12-29T02:09:28.690Z,67.17
2018-12-29T02:11:57.108Z,74.30
2018-12-29T02:14:25.831Z,72.20
2018-12-29T02:16:54.543Z,75.27
2018-12-29T02:19:23.027Z,74.47
2018-12-29T02:21:51.780Z,65.63
2018-12-29T02:24:21.178Z,67.47
2018-12-29T02:26:49.931Z,62.23
2018-12-29T02:29:18.504Z,58.20
2018-12-29T02:31:47.214Z,64.50
2018-12-29T02:34:15.741Z,64.93
2018-12-29T02:36:44.481Z,58.07
2018-12-29T02:39:13.290Z,56.23
2018-12-29T02:41:41.739Z,54.23
2018-12-29T02:44:10.184Z,57.83
2018-12-29T02:46:38.869Z,63.80
2018-12-29T02:49:07.293Z,51.97
2018-12-29T02:51:35.792Z,57.50
2018-12-29T02:54:04.428Z,56.33
2018-12-29T02:56:32.826Z,56.67
2018-12-29T02:59:01.507Z,59.27
2018-12-29T03:01:30.431Z,56.83
2018-12-29T03:03:59.129Z,55.83
2018-12-29T03:06:27.818Z,55.80
2018-12-29T03:08:56.500Z,63.73
2018-12-29T03:11:25.186Z,57.97
2018-12-29T03:13:53.901Z,60.40
2018-12-29T03:16:22.568Z,55.53
2018-12-29T03:18:51.278Z,60.07
2018-12-29T03:21:20.024Z,59.80
2018-12-29T03:23:48.714Z,69.10
2018-12-29T03:26:17.141Z,66.13
2018-12-29T03:28:45.643Z,65.70
2018-12-29T03:31:14.324Z,61.07
2018-12-29T03:33:42.720Z,72.00
2018-12-29T03:36:11.126Z,60.77
2018-12-29T03:38:39.867Z,66.30
2018-12-29T03:41:08.636Z,60.20
2018-12-29T03:43:37.344Z,62.83
2018-12-29T03:46:06.015Z,63.30
2018-12-29T03:48:34.457Z,64.63
2018-12-29T03:51:03.194Z,63.03
2018-12-29T03:53:31.765Z,63.47
2018-12-29T03:56:00.458Z,64.10
2018-12-29T03:58:29.147Z,63.43
2018-12-29T04:00:57.827Z,56.80
2018-12-29T04:03:26.504Z,64.30
2018-12-29T04:05:54.951Z,57.97
2018-12-29T04:08:23.650Z,59.00
2018-12-29T04:10:52.362Z,57.40
2018-12-29T04:13:20.790Z,54.80
2018-12-29T04:15:57.687Z,58.47
2018-12-29T04:18:19.895Z,57.50
2018-12-29T04:20:48.604Z,56.23
2018-12-29T04:23:17.298Z,61.13
2018-12-29T04:25:46.007Z,53.77
2018-12-29T04:28:14.722Z,61.03
2018-12-29T04:30:43.485Z,51.50
2018-12-29T04:33:12.162Z,49.37
2018-12-29T04:35:40.577Z,56.67
2018-12-29T04:38:10.629Z,55.57
2018-12-29T04:40:39.322Z,54.70
2018-12-29T04:43:07.747Z,54.07
2018-12-29T04:45:36.454Z,48.83
2018-12-29T04:48:04.866Z,56.77
2018-12-29T04:50:33.323Z,55.00
2018-12-29T04:53:01.990Z,48.87
2018-12-29T04:55:30.715Z,53.57
2018-12-29T04:57:59.635Z,52.70
2018-12-29T05:00:28.314Z,59.43
2018-12-29T05:02:57.061Z,63.20
2018-12-29T05:05:25.720Z,51.77
2018-12-29T05:07:54.418Z,53.20
2018-12-29T05:10:23.161Z,60.67
2018-12-29T05:12:51.843Z,59.87
2018-12-29T05:15:20.537Z,49.30
2018-12-29T05:17:49.225Z,55.07
2018-12-29T05:20:17.960Z,50.87
2018-12-29T05:22:46.440Z,49.80
2018-12-29T05:25:15.166Z,50.77
2018-12-29T05:27:43.597Z,56.07
2018-12-29T05:30:12.271Z,55.97
2018-12-29T05:32:40.987Z,56.37
2018-12-29T05:35:09.726Z,54.47
2018-12-29T05:37:38.173Z,48.60
2018-12-29T05:40:08.044Z,63.20
2018-12-29T05:42:36.505Z,56.67
2018-12-29T05:45:05.757Z,57.03
2018-12-29T05:47:34.472Z,62.10
2018-12-29T05:50:03.228Z,54.40
2018-12-29T05:52:31.906Z,65.67
2018-12-29T05:55:00.603Z,50.23
2018-12-29T05:57:29.287Z,55.07
2018-12-29T05:59:58.085Z,57.80
2018-12-29T06:02:26.510Z,51.17
2018-12-29T06:04:55.208Z,65.30
2018-12-29T06:07:23.878Z,53.93
2018-12-29T06:09:52.306Z,60.80
2018-12-29T06:12:20.750Z,55.43
2018-12-29T06:14:49.240Z,57.53
2018-12-29T06:17:17.712Z,63.17
2018-12-29T06:19:46.397Z,63.67
2018-12-29T06:22:15.096Z,57.30
2018-12-29T06:24:43.504Z,66.47
2018-12-29T06:27:11.940Z,56.30
2018-12-29T06:29:40.708Z,57.40
2018-12-29T06:32:09.415Z,51.73
2018-12-29T06:34:38.102Z,54.47
2018-12-29T06:37:06.793Z,56.07
2018-12-29T06:39:37.511Z,53.17
2018-12-29T06:42:05.917Z,57.00
2018-12-29T06:44:34.686Z,52.00
2018-12-29T06:47:03.357Z,67.67
2018-12-29T06:49:32.096Z,65.47
2018-12-29T06:52:00.790Z,67.07
2018-12-29T06:54:29.520Z,60.57
2018-12-29T06:56:58.176Z,66.40
2018-12-29T06:59:26.867Z,67.33
2018-12-29T07:01:55.573Z,61.87
2018-12-29T07:04:24.443Z,70.27
2018-12-29T07:06:53.137Z,56.60
2018-12-29T07:09:21.556Z,60.53
2018-12-29T07:11:50.049Z,63.67
2018-12-29T07:14:18.783Z,63.60
2018-12-29T07:16:47.481Z,60.73
2018-12-29T07:19:16.193Z,66.93
2018-12-29T07:21:44.890Z,62.97
2018-12-29T07:24:13.590Z,63.63
2018-12-29T07:26:42.316Z,63.53
2018-12-29T07:29:13.272Z,75.20
2018-12-29T07:31:42.001Z,61.43
2018-12-29T07:34:12.965Z,67.53
2018-12-29T07:36:41.643Z,69.87
2018-12-29T07:39:10.117Z,69.10
2018-12-29T07:41:38.701Z,68.57
2018-12-29T07:44:07.067Z,77.23
2018-12-29T07:46:35.775Z,65.17
2018-12-29T07:49:04.197Z,67.07
2018-12-29T07:51:32.664Z,74.30
2018-12-29T07:54:01.386Z,67.83
2018-12-29T07:56:30.188Z,72.90
2018-12-29T07:58:58.609Z,62.73
2018-12-29T08:01:27.281Z,65.53
2018-12-29T08:03:56.001Z,79.20
2018-12-29T08:06:24.698Z,72.60
2018-12-29T08:08:53.394Z,81.50
2018-12-29T08:11:22.080Z,62.80
2018-12-29T08:13:50.784Z,62.93
2018-12-29T08:16:19.206Z,58.30
2018-12-29T08:18:47.989Z,67.63
2018-12-29T08:21:16.751Z,73.40
2018-12-29T08:23:45.420Z,67.73
2018-12-29T08:26:14.135Z,73.00
2018-12-29T08:28:42.829Z,68.17
2018-12-29T08:31:11.628Z,70.77
2018-12-29T08:33:40.380Z,72.10
2018-12-29T08:36:09.084Z,76.33
2018-12-29T08:38:37.852Z,70.17
2018-12-29T08:41:06.546Z,73.60
2018-12-29T08:43:35.245Z,69.63
2018-12-29T08:46:04.006Z,75.57
2018-12-29T08:48:32.949Z,73.07
2018-12-29T08:51:01.696Z,74.57
2018-12-29T08:53:30.209Z,73.37
2018-12-29T08:55:58.873Z,68.07
2018-12-29T08:58:27.601Z,74.60
2018-12-29T09:00:56.285Z,79.20
2018-12-29T09:03:24.972Z,68.20
2018-12-29T09:05:53.669Z,72.53
2018-12-29T09:08:22.416Z,82.50
2018-12-29T09:10:51.081Z,74.60
2018-12-29T09:13:19.756Z,70.73
2018-12-29T09:15:48.256Z,77.70
2018-12-29T09:18:16.949Z,68.87
2018-12-29T09:20:46.699Z,73.07
2018-12-29T09:23:15.490Z,75.20
2018-12-29T09:25:43.917Z,78.13
2018-12-29T09:28:12.832Z,75.47
2018-12-29T09:30:41.267Z,78.50
2018-12-29T09:33:09.977Z,82.00
2018-12-29T09:35:39.293Z,69.07
2018-12-29T09:38:09.521Z,70.77
2018-12-29T09:40:38.299Z,76.10
2018-12-29T09:43:07.053Z,82.10
2018-12-29T09:45:35.563Z,75.07
2018-12-29T09:48:03.993Z,78.27
2018-12-29T09:50:32.697Z,80.90
2018-12-29T09:53:02.091Z,81.67
2018-12-29T09:55:30.773Z,80.50
2018-12-29T09:57:59.202Z,73.37
2018-12-29T10:00:27.652Z,70.93
2018-12-29T10:02:56.417Z,75.40
2018-12-29T10:05:25.198Z,79.60
2018-12-29T10:07:53.687Z,70.30
2018-12-29T10:10:22.375Z,76.53
2018-12-29T10:12:51.070Z,79.70
2018-12-29T10:15:19.508Z,78.17
2018-12-29T10:17:48.203Z,81.83
2018-12-29T10:20:16.686Z,74.00
2018-12-29T10:22:45.438Z,78.50
2018-12-29T10:25:14.162Z,63.57
2018-12-29T10:27:42.676Z,67.50
2018-12-29T10:30:11.388Z,77.93
2018-12-29T10:32:40.101Z,67.50
2018-12-29T10:35:08.818Z,68.93
2018-12-29T10:37:37.265Z,70.93
2018-12-29T10:40:06.405Z,68.13
2018-12-29T10:42:35.181Z,63.23
2018-12-29T10:45:03.743Z,70.37
2018-12-29T10:47:34.607Z,71.43
2018-12-29T10:50:02.875Z,60.93
2018-12-29T10:52:31.591Z,68.20
2018-12-29T10:55:00.409Z,58.13
2018-12-29T10:57:28.826Z,78.90
2018-12-29T10:59:57.607Z,67.80
2018-12-29T11:02:26.339Z,67.40
2018-12-29T11:04:55.067Z,67.63
2018-12-29T11:07:23.796Z,66.73
2018-12-29T11:09:53.124Z,63.77
2018-12-29T11:12:21.859Z,61.90
2018-12-29T11:14:50.548Z,67.70
2018-12-29T11:17:19.236Z,64.20
2018-12-29T11:19:48.016Z,67.43
2018-12-29T11:22:16.434Z,63.03
2018-12-29T11:24:45.445Z,62.90
2018-12-29T11:27:13.859Z,65.67
2018-12-29T11:29:42.550Z,62.37
2018-12-29T11:32:11.251Z,62.30
2018-12-29T11:34:39.948Z,61.57
2018-12-29T11:37:08.627Z,58.67
2018-12-29T11:39:37.388Z,65.03
2018-12-29T11:42:06.085Z,60.90
2018-12-29T11:44:34.747Z,60.33
2018-12-29T11:47:03.496Z,68.23
2018-12-29T11:49:32.408Z,66.50
2018-12-29T11:52:00.880Z,59.20
2018-12-29T11:54:29.382Z,69.30
2018-12-29T11:56:57.817Z,61.67
2018-12-29T11:59:26.513Z,65.33
2018-12-29T12:01:55.220Z,58.60
2018-12-29T12:04:23.955Z,65.27
2018-12-29T12:06:52.723Z,64.60
2018-12-29T12:09:21.382Z,68.17
2018-12-29T12:11:50.234Z,66.63
2018-12-29T12:14:18.949Z,60.23
2018-12-29T12:16:47.419Z,60.33
2018-12-29T12:19:16.111Z,53.43
2018-12-29T12:21:44.899Z,53.80
2018-12-29T12:24:13.615Z,55.63
2018-12-29T12:26:42.040Z,48.43
2018-12-29T12:29:10.775Z,50.67
2018-12-29T12:31:39.927Z,58.17
2018-12-29T12:34:08.666Z,50.53
2018-12-29T12:36:37.713Z,59.97
2018-12-29T12:39:07.309Z,50.37
2018-12-29T12:41:36.187Z,50.27
2018-12-29T12:44:04.951Z,47.97
2018-12-29T12:46:33.672Z,47.17
2018-12-29T12:49:02.515Z,48.10
2018-12-29T12:51:31.198Z,46.77
2018-12-29T12:53:59.951Z,47.87
2018-12-29T12:56:28.666Z,39.40
2018-12-29T12:58:57.084Z,40.60
2018-12-29T13:01:27.294Z,42.37
2018-12-29T13:03:56.001Z,40.00
2018-12-29T13:06:24.419Z,44.17
2018-12-29T13:08:53.347Z,40.60
2018-12-29T13:11:22.107Z,41.07
2018-12-29T13:13:50.809Z,40.87
2018-12-29T13:16:19.577Z,42.60
2018-12-29T13:18:48.263Z,39.57
2018-12-29T13:21:17.043Z,41.97
2018-12-29T13:23:45.470Z,39.70
2018-12-29T13:26:14.172Z,41.50
2018-12-29T13:28:42.651Z,43.53
2018-12-29T13:31:11.338Z,40.20
2018-12-29T13:33:40.068Z,36.87
2018-12-29T13:36:08.505Z,39.33
2018-12-29T13:38:37.203Z,33.97
2018-12-29T13:41:05.981Z,38.73
2018-12-29T13:43:34.757Z,42.63
2018-12-29T13:46:03.256Z,41.03
2018-12-29T13:48:31.960Z,36.70
2018-12-29T13:51:00.625Z,39.43
2018-12-29T13:53:29.319Z,36.37
2018-12-29T13:55:57.985Z,34.80
2018-12-29T13:58:26.760Z,35.83
2018-12-29T14:00:55.878Z,41.13
2018-12-29T14:03:24.582Z,36.90
2018-12-29T14:05:53.048Z,35.13
2018-12-29T14:08:21.529Z,35.10
2018-12-29T14:10:50.224Z,36.80
2018-12-29T14:13:19.082Z,39.77
2018-12-29T14:15:47.547Z,38.13
2018-12-29T14:18:16.216Z,38.53
2018-12-29T14:20:45.817Z,35.07
2018-12-29T14:23:14.495Z,37.30
2018-12-29T14:25:43.206Z,37.93
2018-12-29T14:28:11.625Z,33.90
2018-12-29T14:30:40.308Z,34.13
2018-12-29T14:33:08.831Z,36.07
2018-12-29T14:35:37.575Z,42.07
2018-12-29T14:38:06.363Z,36.47
2018-12-29T14:40:34.880Z,35.40
2018-12-29T14:43:03.338Z,37.10
2018-12-29T14:45:32.029Z,33.53
2018-12-29T14:48:00.862Z,29.53
2018-12-29T14:50:29.595Z,30.10
2018-12-29T14:52:57.998Z,31.40
2018-12-29T14:55:26.692Z,26.67
2018-12-29T14:57:55.149Z,26.83
2018-12-29T15:00:23.818Z,32.43
2018-12-29T15:02:52.526Z,26.33
2018-12-29T15:05:21.246Z,30.67
2018-12-29T15:07:49.942Z,28.77
2018-12-29T15:10:18.611Z,27.10
2018-12-29T15:12:47.429Z,28.80
2018-12-29T15:15:15.968Z,26.73
2018-12-29T15:17:44.689Z,31.10
2018-12-29T15:20:13.603Z,29.47
2018-12-29T15:22:42.338Z,23.43
2018-12-29T15:25:10.751Z,21.10
2018-12-29T15:27:39.812Z,22.40
2018-12-29T15:30:08.651Z,24.80
2018-12-29T15:32:37.335Z,22.70
2018-12-29T15:35:06.560Z,23.20
2018-12-29T15:37:34.949Z,24.80
2018-12-29T15:40:03.871Z,18.13
2018-12-29T15:42:32.646Z,22.73
2018-12-29T15:45:01.355Z,25.43
2018-12-29T15:47:31.040Z,22.20
2018-12-29T15:49:59.738Z,23.20
2018-12-29T15:52:28.440Z,20.07
2018-12-29T15:54:57.154Z,27.17
2018-12-29T15:57:25.975Z,20.30
2018-12-29T15:59:54.746Z,22.47
2018-12-29T16:02:23.454Z,19.40
2018-12-29T16:04:52.583Z,22.00
2018-12-29T16:07:21.309Z,19.10
2018-12-29T16:09:51.842Z,16.80
2018-12-29T16:12:20.618Z,17.93
2018-12-29T16:14:49.371Z,18.60
2018-12-29T16:17:18.825Z,19.40
2018-12-29T16:19:47.969Z,21.20
2018-12-29T16:22:16.379Z,23.60
2018-12-29T16:24:44.793Z,23.90
2018-12-29T16:27:13.521Z,22.27
2018-12-29T16:29:42.183Z,22.93
2018-12-29T16:32:12.307Z,22.63
2018-12-29T16:34:40.760Z,21.43
2018-12-29T16:37:09.535Z,20.53
2018-12-29T16:39:38.583Z,19.53
2018-12-29T16:42:07.271Z,23.60
2018-12-29T16:44:36.001Z,19.40
2018-12-29T16:47:04.754Z,20.00
2018-12-29T16:49:33.384Z,18.60
2018-12-29T16:52:01.857Z,21.40
2018-12-29T16:54:30.565Z,20.33
2018-12-29T16:56:59.250Z,20.43
2018-12-29T16:59:28.199Z,24.47
2018-12-29T17:01:56.894Z,23.10
2018-12-29T17:04:25.579Z,21.17
2018-12-29T17:06:54.305Z,21.53
2018-12-29T17:09:23.187Z,17.63
2018-12-29T17:11:52.480Z,21.13
2018-12-29T17:14:21.550Z,18.90
2018-12-29T17:16:50.251Z,19.20
2018-12-29T17:19:18.808Z,24.27
2018-12-29T17:21:47.586Z,20.20
2018-12-29T17:24:16.289Z,21.63
2018-12-29T17:26:45.023Z,18.10
2018-12-29T17:29:13.734Z,18.70
2018-12-29T17:31:42.435Z,19.63
2018-12-29T17:34:11.151Z,19.30
2018-12-29T17:36:42.007Z,18.47
2018-12-29T17:39:10.062Z,20.00
2018-12-29T17:41:38.756Z,20.47
2018-12-29T17:44:07.459Z,21.57
2018-12-29T17:46:36.236Z,18.60
2018-12-29T17:49:05.230Z,21.83
2018-12-29T17:51:33.918Z,22.53
2018-12-29T17:54:02.467Z,21.27
2018-12-29T17:56:31.558Z,21.30
2018-12-29T17:59:00.224Z,21.20
2018-12-29T18:01:28.939Z,27.43
2018-12-29T18:03:57.651Z,23.60
2018-12-29T18:06:26.363Z,26.30
2018-12-29T18:08:55.420Z,27.53
2018-12-29T18:11:24.146Z,23.90
2018-12-29T18:13:52.854Z,21.53
2018-12-29T18:16:22.016Z,26.50
2018-12-29T18:18:50.732Z,27.47
2018-12-29T18:21:19.443Z,23.93
2018-12-29T18:23:48.200Z,27.73
2018-12-29T18:26:17.060Z,30.03
2018-12-29T18:28:46.519Z,28.97
2018-12-29T18:31:15.257Z,25.20
2018-12-29T18:33:43.939Z,26.97
2018-12-29T18:36:12.677Z,26.90
2018-12-29T18:38:41.542Z,28.73
2018-12-29T18:41:09.906Z,32.90
2018-12-29T18:43:38.631Z,31.87
2018-12-29T18:46:07.364Z,28.13
2018-12-29T18:48:36.074Z,30.37
2018-12-29T18:51:04.832Z,34.67
2018-12-29T18:53:33.540Z,30.80
2018-12-29T18:56:02.825Z,29.70
2018-12-29T18:58:31.250Z,30.30
2018-12-29T19:00:59.988Z,35.50
2018-12-29T19:03:28.703Z,38.30
2018-12-29T19:05:57.909Z,33.47
2018-12-29T19:08:26.630Z,38.37
2018-12-29T19:10:55.048Z,33.33
2018-12-29T19:13:24.163Z,40.20
2018-12-29T19:15:53.282Z,38.67
2018-12-29T19:18:21.949Z,41.83
2018-12-29T19:20:51.651Z,38.30
2018-12-29T19:23:22.592Z,42.73
2018-12-29T19:25:52.259Z,42.43
2018-12-29T19:28:21.410Z,46.43
2018-12-29T19:30:50.459Z,48.33
2018-12-29T19:33:20.178Z,50.37
2018-12-29T19:35:49.273Z,45.47
2018-12-29T19:38:18.359Z,48.57
2018-12-29T19:40:47.592Z,45.37
2018-12-29T19:43:16.662Z,46.13
2018-12-29T19:45:45.369Z,45.57
2018-12-29T19:48:14.079Z,53.97
2018-12-29T19:50:42.841Z,50.23
2018-12-29T19:53:11.730Z,49.87
2018-12-29T19:55:40.457Z,58.07
2018-12-29T19:58:09.192Z,51.40
2018-12-29T20:00:37.605Z,47.50
2018-12-29T20:03:06.607Z,56.77
2018-12-29T20:05:35.556Z,62.30
2018-12-29T20:08:04.116Z,46.80
2018-12-29T20:10:32.814Z,67.87
2018-12-29T20:13:04.495Z,46.17
2018-12-29T20:15:33.298Z,55.93
2018-12-29T20:18:01.820Z,55.50
2018-12-29T20:20:31.262Z,52.33
2018-12-29T20:22:59.727Z,55.90
2018-12-29T20:25:30.528Z,50.97
2018-12-29T20:27:59.292Z,55.20
2018-12-29T20:30:28.773Z,58.20
2018-12-29T20:32:59.029Z,63.23
2018-12-29T20:35:28.123Z,50.57
2018-12-29T20:37:57.170Z,48.10
2018-12-29T20:40:25.966Z,50.70
2018-12-29T20:42:54.394Z,49.83
2018-12-29T20:45:22.847Z,50.27
2018-12-29T20:47:51.305Z,46.30
2018-12-29T20:50:20.013Z,48.87
2018-12-29T20:52:48.702Z,47.50
2018-12-29T20:55:17.385Z,44.90
2018-12-29T20:57:46.082Z,48.93
2018-12-29T21:00:14.668Z,45.27
2018-12-29T21:02:43.470Z,42.73
2018-12-29T21:05:12.770Z,46.87
2018-12-29T21:07:41.452Z,47.10
2018-12-29T21:10:10.299Z,48.53
2018-12-29T21:12:38.993Z,34.07
2018-12-29T21:15:07.721Z,35.80
2018-12-29T21:17:36.417Z,46.03
2018-12-29T21:20:06.047Z,40.00
2018-12-29T21:22:34.787Z,31.23
2018-12-29T21:25:03.575Z,45.73
2018-12-29T21:27:32.833Z,37.07
2018-12-29T21:30:01.521Z,37.07
2018-12-29T21:32:30.447Z,37.70
2018-12-29T21:34:59.193Z,36.53
2018-12-29T21:37:27.896Z,32.83
2018-12-29T21:39:56.604Z,39.53
2018-12-29T21:42:25.373Z,30.17
2018-12-29T21:44:54.084Z,29.37
2018-12-29T21:47:22.859Z,27.97
2018-12-29T21:49:51.606Z,29.40
2018-12-29T21:52:20.039Z,24.47
2018-12-29T21:54:48.507Z,24.10
2018-12-29T21:57:16.926Z,21.00
2018-12-29T21:59:46.171Z,25.20
2018-12-29T22:02:14.953Z,32.70
2018-12-29T22:04:43.424Z,17.23
2018-12-29T22:07:12.205Z,22.20
2018-12-29T22:09:42.148Z,11.93
2018-12-29T22:12:11.500Z,12.30
2018-12-29T22:14:39.960Z,21.47
2018-12-29T22:17:08.380Z,25.70
2018-12-29T22:19:37.222Z,23.03
2018-12-29T22:22:05.664Z,21.80
2018-12-29T22:24:34.093Z,21.40
2018-12-29T22:27:03.563Z,26.00
2018-12-29T22:29:32.251Z,18.67
2018-12-29T22:32:01.045Z,22.97
2018-12-29T22:34:29.790Z,16.27
2018-12-29T22:36:58.513Z,20.07
2018-12-29T22:39:27.564Z,16.13
2018-12-29T22:41:56.238Z,23.90
2018-12-29T22:44:25.083Z,22.87
2018-12-29T22:46:56.755Z,15.47
2018-12-29T22:49:25.517Z,28.97
2018-12-29T22:51:54.272Z,20.10
2018-12-29T22:54:22.713Z,27.90
2018-12-29T22:56:51.446Z,26.67
2018-12-29T22:59:20.171Z,16.90
2018-12-29T23:01:48.963Z,24.83
2018-12-29T23:04:17.423Z,26.13
2018-12-29T23:06:46.158Z,21.07
2018-12-29T23:09:15.248Z,17.37
2018-12-29T23:11:44.121Z,28.30
2018-12-29T23:14:12.803Z,20.63
2018-12-29T23:16:41.238Z,19.40
2018-12-29T23:19:09.661Z,18.73
2018-12-29T23:21:38.358Z,25.40
2018-12-29T23:24:07.197Z,21.33
2018-12-29T23:26:35.882Z,26.47
2018-12-29T23:29:04.634Z,21.70
2018-12-29T23:31:33.171Z,22.03
2018-12-29T23:34:01.934Z,23.23
2018-12-29T23:36:30.682Z,18.50
2018-12-29T23:38:59.382Z,26.67
2018-12-29T23:41:28.083Z,25.50
2018-12-29T23:43:56.769Z,24.20
2018-12-29T23:46:25.454Z,19.37
2018-12-29T23:48:54.149Z,24.57
2018-12-29T23:51:22.982Z,20.87
2018-12-29T23:53:51.385Z,24.07
2018-12-29T23:56:20.544Z,16.23
2018-12-29T23:58:49.258Z,23.63
